Raleigh, WV (25911)

7:30 AM EDT on October 24, 2014 (GMT -0400)
Southeast Beckley | Change Station
CLOSE
Current Station
Personal Weather Station
Location: Beckley, WV
Elevation: 720 m
Nearby Weather Stations

Elev 720 m 37.76 °N, 81.16 °W | Updated 1 second ago

Partly Cloudy
Partly Cloudy
0.8 °C
Feels Like 1 °C
N
0.0
Wind Variable Wind from SW
Gusts 0.0 km/h

Today
High -- | Low -- °C
--% Chance of Precip.
Yesterday
High -- | Low -- °C
Precip. -- mm
7:41 AM 6:35 PM
New Moon, 0% visible
Pressure 1020 hPa
Visibility 8.0 kilometers
Clouds Clear
Windchill 1 °C
Dew Point 1 °C
Humidity 98%
Rainfall 0 mm
Snow Depth Not available.
UV 0 out of 12
Pollen .70 out of 12
Air Quality Not available.
Flu Activity Sporadic
METAR KBKW 241051Z AUTO 00000KT 5SM BR CLR 02/01 A3010 RMK AO2 SLP204 I1000 T00220011 TSNO

More Conditions Fewer Conditions

Pressure 1020 hPa
Visibility 8.0 kilometers
Clouds Clear
Windchill 1 °C
Dew Point 1 °C
Humidity 98%
Rainfall 0 mm
Snow Depth Not available.
UV 0 out of 12
Pollen .70 out of 12
Air Quality Not available.
Flu Activity Sporadic
METAR KBKW 241051Z AUTO 00000KT 5SM BR CLR 02/01 A3010 RMK AO2 SLP204 I1000 T00220011 TSNO

More Conditions Fewer Conditions

10-Day Weather Forecast

Almanac

Astronomy

Oct. 24, 2014 Rise Set
Actual Time 7:41 AM EDT 6:35 PM EDT
Civil Twilight 7:15 AM EDT 7:02 PM EDT
Nautical Twilight 6:44 AM EDT 7:32 PM EDT
Astronomical Twilight 6:13 AM EDT 8:03 PM EDT
Moon 8:18 AM EDT 7:15 PM EDT
Length of Visible Light 11h 47m
Length of Day
10h 53m
Tomorrow will be 2m 14s shorter.
New Moon, 0% of the Moon is Illuminated
Today
New Moon
Oct 30
First Quarter
Nov 6
Full
Nov 14
Last Quarter
Nov 22
New

Today's Extremes

State Highs State Lows

Community

WunderPhotos

Upload Photos

1,764,525 photos uploaded!

WunderBlogs® & News

Nearby

Snow Depth

Station Depth Elevation
No new snow has been reported.

Earthquake Activity

City Distance Mag. Time & Date
No recent earthquake activity has been reported nearby.
Minimum magnitude displayed is 2.5.

Coastal Water Temperatures

Place Temperature
No Stations Reporting

Nearby Weather Stations